createdAt,value
2022-08-05T00:01:49.658Z,100481.09
2022-08-05T00:04:22.231Z,100482.00
2022-08-05T00:07:26.995Z,100479.94
2022-08-05T00:10:10.360Z,100474.47
2022-08-05T00:12:58.852Z,100473.97
2022-08-05T00:15:54.895Z,100472.44
2022-08-05T00:18:22.801Z,100474.66
2022-08-05T00:21:14.776Z,100472.00
2022-08-05T00:24:10.131Z,100474.94
2022-08-05T00:26:54.736Z,100467.38
2022-08-05T00:29:43.148Z,100469.00
2022-08-05T00:32:15.473Z,100464.38
2022-08-05T00:35:05.245Z,100466.91
2022-08-05T00:37:52.877Z,100465.50
2022-08-05T00:40:52.011Z,100466.91
2022-08-05T00:43:23.869Z,100465.06
2022-08-05T00:46:06.337Z,100472.78
2022-08-05T00:48:51.355Z,100461.31
2022-08-05T00:51:50.728Z,100456.94
2022-08-05T00:54:28.173Z,100461.09
2022-08-05T00:57:02.571Z,100459.69
2022-08-05T00:59:44.311Z,100462.63
2022-08-05T01:02:14.858Z,100462.03
2022-08-05T01:04:50.465Z,100462.03
2022-08-05T01:07:20.866Z,100461.81
2022-08-05T01:09:55.480Z,100466.47
2022-08-05T01:12:29.853Z,100464.25
2022-08-05T01:15:05.138Z,100467.31
2022-08-05T01:17:44.214Z,100477.44
2022-08-05T01:20:28.829Z,100479.06
2022-08-05T01:23:15.009Z,100492.44
2022-08-05T01:25:56.541Z,100481.50
2022-08-05T01:28:39.431Z,100486.16
2022-08-05T01:31:17.159Z,100492.75
2022-08-05T01:33:53.762Z,100487.88
2022-08-05T01:36:32.142Z,100488.16
2022-08-05T01:39:05.382Z,100484.09
2022-08-05T01:41:40.319Z,100489.13
2022-08-05T01:44:18.454Z,100504.50
2022-08-05T01:46:49.099Z,100494.94
2022-08-05T01:49:25.278Z,100493.09
2022-08-05T01:52:17.347Z,100493.19
2022-08-05T01:54:52.817Z,100485.56
2022-08-05T01:58:11.157Z,100482.63
2022-08-05T02:00:21.749Z,100492.53
2022-08-05T02:03:04.752Z,100494.47
2022-08-05T02:05:37.451Z,100487.69
2022-08-05T02:08:12.497Z,100480.28
2022-08-05T02:11:05.126Z,100494.56
2022-08-05T02:13:53.111Z,100488.84
2022-08-05T02:16:30.176Z,100479.28
2022-08-05T02:19:08.470Z,100483.44
2022-08-05T02:21:43.399Z,100478.56
2022-08-05T02:24:23.223Z,100481.06
2022-08-05T02:26:59.051Z,100473.44
2022-08-05T02:29:59.622Z,100474.03
2022-08-05T02:32:29.397Z,100475.16
2022-08-05T02:35:13.597Z,100473.28
2022-08-05T02:37:47.802Z,100470.03
2022-08-05T02:40:25.905Z,100476.09
2022-08-05T02:42:58.617Z,100486.28
2022-08-05T02:45:52.574Z,100480.56
2022-08-05T02:48:28.977Z,100479.19
2022-08-05T02:51:01.489Z,100480.84
2022-08-05T02:53:35.891Z,100481.69
2022-08-05T02:56:18.604Z,100485.81
2022-08-05T02:58:51.474Z,100477.09
2022-08-05T03:01:27.199Z,100475.75
2022-08-05T03:04:12.015Z,100473.03
2022-08-05T03:06:53.704Z,100476.06
2022-08-05T03:09:37.488Z,100478.78
2022-08-05T03:12:41.132Z,100482.91
2022-08-05T03:15:13.036Z,100482.97
2022-08-05T03:17:44.897Z,100478.38
2022-08-05T03:20:17.792Z,100476.53
2022-08-05T03:22:50.490Z,100475.72
2022-08-05T03:25:33.391Z,100477.09
2022-08-05T03:28:13.983Z,100474.63
2022-08-05T03:30:45.192Z,100468.34
2022-08-05T03:33:17.729Z,100482.31
2022-08-05T03:35:51.709Z,100480.16
2022-08-05T03:38:23.997Z,100471.97
2022-08-05T03:41:03.948Z,100473.59
2022-08-05T03:44:08.270Z,100467.59
2022-08-05T03:46:32.549Z,100462.13
2022-08-05T03:49:02.516Z,100460.00
2022-08-05T03:52:39.423Z,100463.81
2022-08-05T03:55:52.466Z,100456.97
2022-08-05T03:57:42.660Z,100459.19
2022-08-05T04:00:17.310Z,100452.91
2022-08-05T04:02:58.311Z,100452.09
2022-08-05T04:05:33.131Z,100467.94
2022-08-05T04:08:30.261Z,100464.97
2022-08-05T04:11:01.846Z,100465.78
2022-08-05T04:13:50.960Z,100470.19
2022-08-05T04:16:24.325Z,100480.84
2022-08-05T04:18:57.698Z,100473.22
2022-08-05T04:22:09.468Z,100475.97
2022-08-05T04:24:22.445Z,100481.69
2022-08-05T04:26:52.897Z,100480.03
2022-08-05T04:29:22.743Z,100476.19
2022-08-05T04:31:53.085Z,100466.91
2022-08-05T04:34:33.767Z,100461.66
2022-08-05T04:37:05.936Z,100465.75
2022-08-05T04:39:39.247Z,100458.88
2022-08-05T04:42:12.930Z,100466.50
2022-08-05T04:44:43.551Z,100461.28
2022-08-05T04:47:18.587Z,100460.72
2022-08-05T04:50:02.533Z,100459.31
2022-08-05T04:52:40.032Z,100476.75
2022-08-05T04:55:17.260Z,100486.34
2022-08-05T04:58:08.155Z,100490.94
2022-08-05T05:00:43.080Z,100490.34
2022-08-05T05:03:13.602Z,100502.91
2022-08-05T05:06:36.178Z,100508.91
2022-08-05T05:08:42.825Z,100504.25
2022-08-05T05:11:15.505Z,100501.75
2022-08-05T05:13:45.925Z,100510.47
2022-08-05T05:16:19.711Z,100508.25
2022-08-05T05:19:16.381Z,100516.16
2022-08-05T05:21:41.447Z,100519.09
2022-08-05T05:24:17.617Z,100511.69
2022-08-05T05:26:51.973Z,100508.88
2022-08-05T05:29:22.348Z,100501.50
2022-08-05T05:31:52.276Z,100501.22
2022-08-05T05:34:26.775Z,100496.56
2022-08-05T05:36:57.215Z,100500.09
2022-08-05T05:39:34.493Z,100508.59
2022-08-05T05:42:08.887Z,100509.69
2022-08-05T05:44:43.018Z,100511.91
2022-08-05T05:47:21.693Z,100525.56
2022-08-05T05:49:56.519Z,100540.94
2022-08-05T05:52:29.994Z,100547.50
2022-08-05T05:55:07.504Z,100557.34
2022-08-05T05:57:52.936Z,100572.13
2022-08-05T06:00:31.756Z,100577.28
2022-08-05T06:03:40.589Z,100567.19
2022-08-05T06:05:55.542Z,100554.59
2022-08-05T06:08:32.520Z,100551.56
2022-08-05T06:11:02.917Z,100568.19
2022-08-05T06:13:40.725Z,100584.88
2022-08-05T06:16:29.146Z,100599.59
2022-08-05T06:19:05.761Z,100610.81
2022-08-05T06:21:38.359Z,100622.56
2022-08-05T06:24:12.840Z,100609.72
2022-08-05T06:26:51.351Z,100602.03
2022-08-05T06:29:46.787Z,100612.91
2022-08-05T06:32:25.277Z,100619.03
2022-08-05T06:34:57.442Z,100625.81
2022-08-05T06:37:56.162Z,100635.03
2022-08-05T06:40:21.371Z,100632.03
2022-08-05T06:42:57.484Z,100638.88
2022-08-05T06:45:44.967Z,100632.91
2022-08-05T06:48:52.558Z,100636.09
2022-08-05T06:51:12.030Z,100628.25
2022-08-05T06:53:59.270Z,100620.59
2022-08-05T06:56:29.653Z,100617.72
2022-08-05T06:59:01.772Z,100606.88
2022-08-05T07:01:34.348Z,100608.91
2022-08-05T07:04:04.603Z,100610.97
2022-08-05T07:06:34.532Z,100611.38
2022-08-05T07:09:04.977Z,100609.25
2022-08-05T07:11:37.035Z,100612.28
2022-08-05T07:14:29.269Z,100610.19
2022-08-05T07:17:58.331Z,100601.28
2022-08-05T07:22:47.855Z,100610.44
2022-08-05T07:25:55.516Z,100612.94
2022-08-05T07:28:11.450Z,100611.94
2022-08-05T07:30:43.244Z,100613.56
2022-08-05T07:33:21.373Z,100630.63
2022-08-05T07:36:20.227Z,100642.03
2022-08-05T07:38:54.972Z,100638.16
2022-08-05T07:42:13.955Z,100645.88
2022-08-05T07:44:19.255Z,100665.06
2022-08-05T07:46:50.903Z,100658.53
2022-08-05T07:49:24.117Z,100658.63
2022-08-05T07:51:55.210Z,100660.78
2022-08-05T07:54:31.043Z,100665.75
2022-08-05T07:57:41.973Z,100650.81
2022-08-05T07:59:54.194Z,100640.28
2022-08-05T08:02:31.146Z,100646.16
2022-08-05T08:05:21.115Z,100648.69
2022-08-05T08:07:59.669Z,100655.28
2022-08-05T08:10:30.889Z,100645.00
2022-08-05T08:13:01.803Z,100641.00
2022-08-05T08:16:33.949Z,100642.47
2022-08-05T08:18:22.096Z,100654.31
2022-08-05T08:21:02.897Z,100665.72
2022-08-05T08:24:01.884Z,100654.41
2022-08-05T08:26:29.658Z,100656.75
2022-08-05T08:29:21.883Z,100646.94
2022-08-05T08:31:52.226Z,100640.06
2022-08-05T08:34:30.775Z,100641.19
2022-08-05T08:37:05.694Z,100658.97
2022-08-05T08:39:37.742Z,100655.63
2022-08-05T08:42:34.584Z,100640.03
2022-08-05T08:45:23.752Z,100636.19
2022-08-05T08:48:10.727Z,100654.94
2022-08-05T08:51:22.275Z,100663.50
2022-08-05T08:53:45.016Z,100681.63
2022-08-05T08:56:15.700Z,100694.25
2022-08-05T08:58:47.923Z,100694.03
2022-08-05T09:01:19.190Z,100688.03
2022-08-05T09:03:55.611Z,100690.22
2022-08-05T09:06:29.818Z,100677.94
2022-08-05T09:09:04.489Z,100683.19
2022-08-05T09:11:51.783Z,100693.09
2022-08-05T09:14:56.938Z,100696.34
2022-08-05T09:17:40.793Z,100690.94
2022-08-05T09:20:08.510Z,100675.84
2022-08-05T09:23:07.783Z,100684.94
2022-08-05T09:26:02.570Z,100694.53
2022-08-05T09:28:34.015Z,100722.41
2022-08-05T09:31:43.646Z,100722.13
2022-08-05T09:34:01.214Z,100724.81
2022-08-05T09:36:54.968Z,100728.34
2022-08-05T09:39:41.200Z,100715.72
2022-08-05T09:42:24.254Z,100724.75
2022-08-05T09:45:17.538Z,100731.59
2022-08-05T09:47:55.942Z,100742.03
2022-08-05T09:50:44.032Z,100751.09
2022-08-05T09:53:26.044Z,100752.44
2022-08-05T09:56:12.851Z,100753.84
2022-08-05T09:58:59.284Z,100746.50
2022-08-05T10:01:31.709Z,100744.59
2022-08-05T10:04:10.413Z,100743.81
2022-08-05T10:06:54.742Z,100733.44
2022-08-05T10:09:29.545Z,100713.78
2022-08-05T10:12:18.531Z,100707.81
2022-08-05T10:15:23.212Z,100680.47
2022-08-05T10:18:09.003Z,100691.97
2022-08-05T10:20:42.986Z,100705.69
2022-08-05T10:23:33.925Z,100689.88
2022-08-05T10:26:14.286Z,100673.47
2022-08-05T10:28:46.219Z,100670.78
2022-08-05T10:32:52.798Z,100668.91
2022-08-05T10:34:11.945Z,100670.25
2022-08-05T10:36:44.505Z,100682.53
2022-08-05T10:39:24.274Z,100700.50
2022-08-05T10:42:01.809Z,100702.97
2022-08-05T10:44:34.136Z,100718.31
2022-08-05T10:47:26.938Z,100751.16
2022-08-05T10:50:20.877Z,100754.47
2022-08-05T10:52:58.521Z,100725.78
2022-08-05T10:55:38.451Z,100718.47
2022-08-05T10:58:20.718Z,100712.69
2022-08-05T11:00:55.338Z,100722.00
2022-08-05T11:03:36.071Z,100732.47
2022-08-05T11:06:16.155Z,100742.03
2022-08-05T11:09:45.589Z,100741.22
2022-08-05T11:12:50.802Z,100735.50
2022-08-05T11:15:58.944Z,100722.41
2022-08-05T11:18:32.452Z,100701.09
2022-08-05T11:21:11.463Z,100685.50
2022-08-05T11:24:04.679Z,100702.16
2022-08-05T11:26:36.514Z,100710.31
2022-08-05T11:29:11.450Z,100717.84
2022-08-05T11:31:54.157Z,100724.16
2022-08-05T11:34:50.781Z,100742.19
2022-08-05T11:38:30.913Z,100743.22
2022-08-05T11:41:12.829Z,100741.72
2022-08-05T11:44:05.410Z,100748.66
2022-08-05T11:46:58.105Z,100745.84
2022-08-05T11:49:28.874Z,100745.84
2022-08-05T11:52:08.648Z,100745.69
2022-08-05T11:54:54.789Z,100759.72
2022-08-05T11:58:08.096Z,100755.00
2022-08-05T12:00:31.828Z,100755.72
2022-08-05T12:03:23.873Z,100752.50
2022-08-05T12:06:10.124Z,100742.88
2022-08-05T12:08:51.027Z,100747.84
2022-08-05T12:11:28.453Z,100749.91
2022-08-05T12:14:11.420Z,100747.53
2022-08-05T12:16:45.619Z,100755.00
2022-08-05T12:20:26.248Z,100757.91
2022-08-05T12:22:09.953Z,100755.38
2022-08-05T12:24:49.656Z,100752.13
2022-08-05T12:27:32.813Z,100759.63
2022-08-05T12:30:15.498Z,100756.13
2022-08-05T12:32:51.348Z,100755.09
2022-08-05T12:35:21.950Z,100754.78
2022-08-05T12:37:53.360Z,100756.34
2022-08-05T12:40:26.833Z,100747.84
2022-08-05T12:43:01.501Z,100753.31
2022-08-05T12:45:48.377Z,100739.31
2022-08-05T12:48:32.222Z,100745.81
2022-08-05T12:52:10.625Z,100743.06
2022-08-05T12:54:14.773Z,100754.94
2022-08-05T12:56:54.895Z,100757.44
2022-08-05T12:59:46.814Z,100755.69
2022-08-05T13:02:27.346Z,100759.09
2022-08-05T13:05:00.258Z,100756.59
2022-08-05T13:10:20.676Z,100759.94
2022-08-05T13:12:58.179Z,100765.75
2022-08-05T13:15:41.510Z,100758.66
2022-08-05T13:18:20.782Z,100746.53
2022-08-05T13:20:51.727Z,100741.56
2022-08-05T13:23:23.222Z,100746.81
2022-08-05T13:25:59.636Z,100748.78
2022-08-05T13:28:32.049Z,100743.41
2022-08-05T13:31:14.148Z,100745.84
2022-08-05T13:34:21.508Z,100749.31
2022-08-05T13:36:35.863Z,100746.44
2022-08-05T13:39:08.647Z,100740.66
2022-08-05T13:41:57.007Z,100733.16
2022-08-05T13:44:26.791Z,100738.56
2022-08-05T13:47:02.562Z,100743.72
2022-08-05T13:49:45.280Z,100738.84
2022-08-05T13:52:18.914Z,100745.44
2022-08-05T13:55:01.173Z,100750.88
2022-08-05T13:57:50.793Z,100743.22
2022-08-05T14:00:27.541Z,100747.69
2022-08-05T14:03:01.466Z,100746.94
2022-08-05T14:05:48.084Z,100742.06
2022-08-05T14:08:27.912Z,100753.31
2022-08-05T14:11:20.701Z,100753.41
2022-08-05T14:13:55.037Z,100752.66
2022-08-05T14:16:27.666Z,100752.28
2022-08-05T14:19:04.510Z,100749.41
2022-08-05T14:22:10.085Z,100745.03
2022-08-05T14:24:24.430Z,100751.34
2022-08-05T14:27:08.764Z,100744.22
2022-08-05T14:29:44.454Z,100741.53
2022-08-05T14:32:27.726Z,100750.34
2022-08-05T14:35:00.756Z,100759.19
2022-08-05T14:37:45.260Z,100759.44
2022-08-05T14:40:18.128Z,100761.34
2022-08-05T14:42:48.683Z,100767.13
2022-08-05T14:45:18.946Z,100763.88
2022-08-05T14:48:02.724Z,100764.44
2022-08-05T14:50:40.735Z,100768.31
2022-08-05T14:53:10.898Z,100768.59
2022-08-05T14:55:40.843Z,100765.84
2022-08-05T14:58:14.043Z,100775.19
2022-08-05T15:00:59.272Z,100784.50
2022-08-05T15:03:33.778Z,100775.19
2022-08-05T15:06:15.188Z,100781.84
2022-08-05T15:08:59.234Z,100784.88
2022-08-05T15:11:51.903Z,100779.41
2022-08-05T15:14:34.436Z,100776.94
2022-08-05T15:17:14.721Z,100767.69
2022-08-05T15:19:57.247Z,100758.44
2022-08-05T15:22:29.792Z,100763.69
2022-08-05T15:24:59.761Z,100764.25
2022-08-05T15:27:32.188Z,100764.00
2022-08-05T15:30:06.727Z,100779.91
2022-08-05T15:32:36.629Z,100779.41
2022-08-05T15:35:10.657Z,100784.06
2022-08-05T15:38:33.896Z,100782.16
2022-08-05T15:40:59.097Z,100782.75
2022-08-05T15:43:24.679Z,100784.97
2022-08-05T15:46:00.818Z,100800.63
2022-08-05T15:48:31.522Z,100792.19
2022-08-05T15:51:03.540Z,100794.16
2022-08-05T15:53:50.878Z,100793.38
2022-08-05T15:56:21.289Z,100796.09
2022-08-05T15:58:51.574Z,100798.91
2022-08-05T16:01:21.556Z,100815.88
2022-08-05T16:03:59.546Z,100821.34
2022-08-05T16:06:29.500Z,100820.53
2022-08-05T16:09:02.765Z,100814.53
2022-08-05T16:11:43.049Z,100821.34
2022-08-05T16:14:17.062Z,100825.44
2022-08-05T16:16:48.615Z,100826.31
2022-08-05T16:19:18.997Z,100829.63
2022-08-05T16:22:10.452Z,100846.03
2022-08-05T16:24:51.604Z,100866.03
2022-08-05T16:27:32.343Z,100839.25
2022-08-05T16:30:26.316Z,100849.97
2022-08-05T16:32:57.103Z,100857.34
2022-08-05T16:35:32.189Z,100865.03
2022-08-05T16:38:24.586Z,100867.53
2022-08-05T16:41:00.299Z,100868.59
2022-08-05T16:43:33.584Z,100882.56
2022-08-05T16:46:12.688Z,100882.59
2022-08-05T16:48:55.713Z,100883.44
2022-08-05T16:51:30.921Z,100893.31
2022-08-05T16:54:17.122Z,100900.16
2022-08-05T16:56:52.293Z,100896.94
2022-08-05T16:59:22.426Z,100898.31
2022-08-05T17:01:55.731Z,100878.66
2022-08-05T17:04:28.581Z,100878.94
2022-08-05T17:07:01.161Z,100884.69
2022-08-05T17:09:57.720Z,100894.50
2022-08-05T17:12:50.445Z,100896.41
2022-08-05T17:15:19.672Z,100894.47
2022-08-05T17:17:54.756Z,100906.50
2022-08-05T17:20:26.694Z,100921.03
2022-08-05T17:22:57.559Z,100926.25
2022-08-05T17:25:33.709Z,100945.09
2022-08-05T17:28:15.565Z,100948.97
2022-08-05T17:30:50.680Z,100955.28
2022-08-05T17:33:23.103Z,100957.78
2022-08-05T17:36:07.855Z,100963.50
2022-08-05T17:38:42.609Z,100967.31
2022-08-05T17:42:16.885Z,100978.25
2022-08-05T17:44:08.134Z,100999.31
2022-08-05T17:46:41.092Z,100999.84
2022-08-05T17:49:12.558Z,100996.28
2022-08-05T17:51:42.501Z,101007.47
2022-08-05T17:54:17.386Z,101020.03
2022-08-05T17:56:53.759Z,101017.31
2022-08-05T17:59:26.258Z,101031.22
2022-08-05T18:01:58.355Z,101044.84
2022-08-05T18:04:30.082Z,101054.09
2022-08-05T18:07:02.000Z,101052.44
2022-08-05T18:09:59.475Z,101058.69
2022-08-05T18:12:24.365Z,101054.03
2022-08-05T18:14:57.495Z,101069.03
2022-08-05T18:17:58.740Z,101074.47
2022-08-05T18:20:19.222Z,101080.47
2022-08-05T18:22:54.657Z,101074.13
2022-08-05T18:25:33.020Z,101067.59
2022-08-05T18:28:04.743Z,101070.84
2022-08-05T18:30:40.157Z,101074.66
2022-08-05T18:33:13.835Z,101081.47
2022-08-05T18:36:01.254Z,101097.53
2022-08-05T18:38:34.186Z,101114.44
2022-08-05T18:41:57.226Z,101110.84
2022-08-05T18:43:54.409Z,101116.03
2022-08-05T18:46:29.053Z,101102.94
2022-08-05T18:49:19.138Z,101107.03
2022-08-05T18:52:06.454Z,101114.97
2022-08-05T18:54:41.292Z,101108.94
2022-08-05T18:57:18.031Z,101111.38
2022-08-05T19:00:03.049Z,101109.44
2022-08-05T19:02:38.555Z,101114.03
2022-08-05T19:06:12.765Z,101127.06
2022-08-05T19:08:02.785Z,101135.25
2022-08-05T19:10:33.777Z,101134.66
2022-08-05T19:13:07.451Z,101144.72
2022-08-05T19:15:59.791Z,101146.84
2022-08-05T19:18:35.503Z,101160.94
2022-08-05T19:21:09.908Z,101169.63
2022-08-05T19:24:07.684Z,101164.13
2022-08-05T19:26:31.916Z,101159.19
2022-08-05T19:29:07.031Z,101152.06
2022-08-05T19:31:45.009Z,101159.94
2022-08-05T19:34:23.783Z,101169.94
2022-08-05T19:36:53.963Z,101156.59
2022-08-05T19:39:23.995Z,101165.56
2022-08-05T19:42:07.204Z,101179.44
2022-08-05T19:44:45.252Z,101191.66
2022-08-05T19:47:16.735Z,101200.63
2022-08-05T19:49:50.883Z,101210.06
2022-08-05T19:52:31.612Z,101199.91
2022-08-05T19:55:07.088Z,101196.91
2022-08-05T19:58:19.689Z,101208.03
2022-08-05T20:00:43.025Z,101212.66
2022-08-05T20:03:13.849Z,101204.44
2022-08-05T20:05:51.246Z,101221.28
2022-08-05T20:08:24.386Z,101215.28
2022-08-05T20:10:55.290Z,101227.19
2022-08-05T20:13:54.953Z,101221.16
2022-08-05T20:16:15.341Z,101220.59
2022-08-05T20:18:55.607Z,101217.06
2022-08-05T20:21:29.002Z,101208.59
2022-08-05T20:24:01.533Z,101225.22
2022-08-05T20:26:31.619Z,101230.97
2022-08-05T20:29:01.834Z,101236.94
2022-08-05T20:31:41.975Z,101237.44
2022-08-05T20:34:20.370Z,101245.03
2022-08-05T20:36:52.942Z,101240.91
2022-08-05T20:39:22.965Z,101251.78
2022-08-05T20:41:52.813Z,101253.66
2022-08-05T20:44:30.282Z,101265.03
2022-08-05T20:47:01.623Z,101272.28
2022-08-05T20:49:39.769Z,101281.22
2022-08-05T20:52:16.276Z,101297.47
2022-08-05T20:55:55.247Z,101305.88
2022-08-05T20:57:46.941Z,101308.59
2022-08-05T21:00:49.728Z,101309.34
2022-08-05T21:03:09.747Z,101314.22
2022-08-05T21:05:54.783Z,101319.56
2022-08-05T21:08:41.950Z,101315.72
2022-08-05T21:11:15.128Z,101326.81
2022-08-05T21:14:04.741Z,101338.41
2022-08-05T21:16:36.223Z,101331.59
2022-08-05T21:19:07.261Z,101335.06
2022-08-05T21:21:39.165Z,101341.81
2022-08-05T21:24:19.385Z,101344.78
2022-08-05T21:26:58.374Z,101344.78
2022-08-05T21:29:32.205Z,101346.59
2022-08-05T21:32:03.625Z,101348.16
2022-08-05T21:34:36.447Z,101342.94
2022-08-05T21:37:08.222Z,101335.38
2022-08-05T21:39:40.940Z,101338.31
2022-08-05T21:42:31.064Z,101338.56
2022-08-05T21:45:06.347Z,101343.44
2022-08-05T21:47:57.134Z,101347.13
2022-08-05T21:50:28.497Z,101341.34
2022-08-05T21:52:58.762Z,101347.50
2022-08-05T21:56:01.006Z,101343.63
2022-08-05T21:58:31.887Z,101344.22
2022-08-05T22:01:04.560Z,101351.22
2022-08-05T22:03:48.711Z,101364.22
2022-08-05T22:06:34.821Z,101378.28
2022-08-05T22:09:13.762Z,101374.66
2022-08-05T22:11:47.872Z,101379.75
2022-08-05T22:17:48.717Z,101353.56
2022-08-05T22:20:30.004Z,101365.94
2022-08-05T22:23:17.109Z,101363.13
2022-08-05T22:26:10.150Z,101376.97
2022-08-05T22:28:44.298Z,101388.78
2022-08-05T22:31:15.364Z,101387.34
2022-08-05T22:33:57.195Z,101382.41
2022-08-05T22:36:28.401Z,101391.63
2022-08-05T22:39:04.349Z,101385.38
2022-08-05T22:42:11.474Z,101395.06
2022-08-05T22:44:32.641Z,101406.16
2022-08-05T22:47:05.801Z,101405.56
2022-08-05T22:50:19.699Z,101404.16
2022-08-05T22:52:32.267Z,101410.91
2022-08-05T22:55:04.449Z,101410.31
2022-08-05T22:57:49.912Z,101403.44
2022-08-05T23:00:24.361Z,101408.53
2022-08-05T23:02:56.739Z,101405.81
2022-08-05T23:05:28.239Z,101411.22
2022-08-05T23:08:00.785Z,101409.00
2022-08-05T23:10:30.837Z,101413.00
2022-08-05T23:13:01.089Z,101409.72
2022-08-05T23:15:36.358Z,101413.50
2022-08-05T23:18:11.664Z,101416.44
2022-08-05T23:20:43.097Z,101409.59
2022-08-05T23:23:13.485Z,101410.91
2022-08-05T23:25:51.408Z,101414.09
2022-08-05T23:28:27.826Z,101407.50
2022-08-05T23:31:17.478Z,101412.56
2022-08-05T23:34:05.946Z,101415.53
2022-08-05T23:36:40.103Z,101420.59
2022-08-05T23:39:32.287Z,101428.75
2022-08-05T23:42:14.602Z,101432.28
2022-08-05T23:44:44.743Z,101428.97
2022-08-05T23:47:27.245Z,101433.63
2022-08-05T23:49:57.279Z,101434.09
2022-08-05T23:52:30.635Z,101446.47
2022-08-05T23:55:05.475Z,101447.44
2022-08-05T23:57:39.117Z,101437.63
